sensor_id;sensor_type;location;lat;lon;timestamp;pressure;altitude;pressure_sealevel;temperature;humidity
21877;BME280;11103;43.788;23.710;2022-09-09T00:02:22;2893.22;;;19.07;100.00
21877;BME280;11103;43.788;23.710;2022-09-09T00:18:36;7469.44;;;18.92;100.00
21877;BME280;11103;43.788;23.710;2022-09-09T00:21:15;7143.09;;;18.97;100.00
21877;BME280;11103;43.788;23.710;2022-09-09T00:24:08;10743.59;;;18.94;100.00
21877;BME280;11103;43.788;23.710;2022-09-09T00:26:48;10414.81;;;18.88;100.00
21877;BME280;11103;43.788;23.710;2022-09-09T00:32:13;9758.75;;;18.83;100.00
21877;BME280;11103;43.788;23.710;2022-09-09T00:34:46;11063.38;;;18.61;100.00
21877;BME280;11103;43.788;23.710;2022-09-09T00:37:19;14671.09;;;18.76;100.00
21877;BME280;11103;43.788;23.710;2022-09-09T00:39:47;14014.78;;;18.73;100.00
21877;BME280;11103;43.788;23.710;2022-09-09T00:42:15;17949.50;;;18.71;100.00
21877;BME280;11103;43.788;23.710;2022-09-09T00:45:31;18930.97;;;18.63;100.00
21877;BME280;11103;43.788;23.710;2022-09-09T00:47:53;17613.69;;;18.49;100.00
21877;BME280;11103;43.788;23.710;2022-09-09T00:53:29;13028.72;;;18.62;100.00
21877;BME280;11103;43.788;23.710;2022-09-09T00:56:12;11063.13;;;18.60;100.00
21877;BME280;11103;43.788;23.710;2022-09-09T00:58:42;10732.53;;;18.45;100.00
21877;BME280;11103;43.788;23.710;2022-09-09T01:01:12;11714.41;;;18.45;100.00
21877;BME280;11103;43.788;23.710;2022-09-09T01:06:26;11715.75;;;18.51;100.00
21877;BME280;11103;43.788;23.710;2022-09-09T01:09:22;15319.06;;;18.50;100.00
21877;BME280;11103;43.788;23.710;2022-09-09T01:12:06;15973.88;;;18.48;100.00
21877;BME280;11103;43.788;23.710;2022-09-09T01:17:05;11712.31;;;18.36;100.00
21877;BME280;11103;43.788;23.710;2022-09-09T01:28:05;9422.19;;;18.38;100.00
21877;BME280;11103;43.788;23.710;2022-09-09T01:30:35;10074.06;;;18.27;100.00
21877;BME280;11103;43.788;23.710;2022-09-09T01:33:01;10074.06;;;18.27;100.00
21877;BME280;11103;43.788;23.710;2022-09-09T01:38:32;15642.47;;;18.36;100.00
21877;BME280;11103;43.788;23.710;2022-09-09T01:40:58;16953.13;;;18.34;100.00
21877;BME280;11103;43.788;23.710;2022-09-09T01:43:25;15637.81;;;18.21;100.00
21877;BME280;11103;43.788;23.710;2022-09-09T01:45:54;14981.84;;;18.18;100.00
21877;BME280;11103;43.788;23.710;2022-09-09T01:48:22;13658.66;;;17.70;100.00
21877;BME280;11103;43.788;23.710;2022-09-09T01:50:48;11711.19;;;18.32;100.00
21877;BME280;11103;43.788;23.710;2022-09-09T01:53:15;9416.25;;;18.10;100.00
21877;BME280;11103;43.788;23.710;2022-09-09T01:55:48;8107.81;;;18.05;100.00
21877;BME280;11103;43.788;23.710;2022-09-09T02:00:59;5823.84;;;18.25;100.00
21877;BME280;11103;43.788;23.710;2022-09-09T02:03:28;4845.53;;;18.37;100.00
21877;BME280;11103;43.788;23.710;2022-09-09T02:08:48;3866.00;;;18.39;100.00
21877;BME280;11103;43.788;23.710;2022-09-09T02:11:17;1578.84;;;18.15;100.00
21877;BME280;11103;43.788;23.710;2022-09-09T02:13:45;1253.97;;;18.32;100.00
21877;BME280;11103;43.788;23.710;2022-09-09T02:17:06;275.47;;;18.35;100.00
21877;BME280;11103;43.788;23.710;2022-09-09T02:21:50;-379.00;;;17.91;100.00
21877;BME280;11103;43.788;23.710;2022-09-09T02:24:16;275.88;;;18.42;100.00
21877;BME280;11103;43.788;23.710;2022-09-09T02:26:44;601.97;;;18.40;100.00
21877;BME280;11103;43.788;23.710;2022-09-09T02:29:15;2233.78;;;18.42;100.00
21877;BME280;11103;43.788;23.710;2022-09-09T02:31:44;4191.56;;;18.31;100.00
21877;BME280;11103;43.788;23.710;2022-09-09T02:34:12;5173.47;;;18.46;100.00
21877;BME280;11103;43.788;23.710;2022-09-09T02:36:40;6480.56;;;18.45;100.00
21877;BME280;11103;43.788;23.710;2022-09-09T02:39:09;7459.28;;;18.34;100.00
21877;BME280;11103;43.788;23.710;2022-09-09T02:41:38;5170.47;;;18.24;100.00
21877;BME280;11103;43.788;23.710;2022-09-09T02:44:15;5172.47;;;18.39;100.00
21877;BME280;11103;43.788;23.710;2022-09-09T02:52:15;3539.63;;;18.41;100.00
21877;BME280;11103;43.788;23.710;2022-09-09T02:54:41;7459.97;;;18.38;100.00
21877;BME280;11103;43.788;23.710;2022-09-09T02:59:39;7459.63;;;18.36;100.00
21877;BME280;11103;43.788;23.710;2022-09-09T03:02:05;7785.56;;;18.30;100.00
21877;BME280;11103;43.788;23.710;2022-09-09T03:04:31;8109.41;;;18.14;100.00
21877;BME280;11103;43.788;23.710;2022-09-09T03:06:58;9082.41;;;17.75;100.00
21877;BME280;11103;43.788;23.710;2022-09-09T03:09:23;7454.16;;;18.05;100.00
21877;BME280;11103;43.788;23.710;2022-09-09T03:11:49;7129.16;;;18.15;100.00
21877;BME280;11103;43.788;23.710;2022-09-09T03:14:15;8431.66;;;17.90;100.00
21877;BME280;11103;43.788;23.710;2022-09-09T03:16:41;8760.59;;;18.01;100.00
21877;BME280;11103;43.788;23.710;2022-09-09T03:19:08;8434.53;;;18.05;100.00
21877;BME280;11103;43.788;23.710;2022-09-09T03:21:33;9088.50;;;18.06;100.00
21877;BME280;11103;43.788;23.710;2022-09-09T03:23:59;7452.22;;;17.94;100.00
21877;BME280;11103;43.788;23.710;2022-09-09T03:26:25;8429.25;;;17.77;100.00
21877;BME280;11103;43.788;23.710;2022-09-09T03:28:50;6792.97;;;17.57;100.00
21877;BME280;11103;43.788;23.710;2022-09-09T03:31:17;5490.53;;;17.78;100.00
21877;BME280;11103;43.788;23.710;2022-09-09T03:33:43;2878.53;;;17.61;100.00
21877;BME280;11103;43.788;23.710;2022-09-09T03:36:08;2877.94;;;17.55;100.00
21877;BME280;11103;43.788;23.710;2022-09-09T03:38:34;3204.44;;;17.59;100.00
21877;BME280;11103;43.788;23.710;2022-09-09T03:41:00;2554.09;;;17.77;100.00
21877;BME280;11103;43.788;23.710;2022-09-09T03:43:28;3855.97;;;17.53;100.00
21877;BME280;11103;43.788;23.710;2022-09-09T03:45:54;3858.63;;;17.76;100.00
21877;BME280;11103;43.788;23.710;2022-09-09T03:48:23;4508.28;;;17.53;100.00
21877;BME280;11103;43.788;23.710;2022-09-09T03:50:52;4836.19;;;17.66;100.00
21877;BME280;11103;43.788;23.710;2022-09-09T03:53:19;5487.38;;;17.56;100.00
21877;BME280;11103;43.788;23.710;2022-09-09T03:55:50;5162.22;;;17.64;100.00
21877;BME280;11103;43.788;23.710;2022-09-09T03:58:18;5488.81;;;17.66;100.00
21877;BME280;11103;43.788;23.710;2022-09-09T04:00:53;6468.63;;;17.70;100.00
21877;BME280;11103;43.788;23.710;2022-09-09T04:03:19;5163.47;;;17.73;100.00
21877;BME280;11103;43.788;23.710;2022-09-09T04:05:44;6794.94;;;17.69;100.00
21877;BME280;11103;43.788;23.710;2022-09-09T04:08:16;7447.81;;;17.68;100.00
21877;BME280;11103;43.788;23.710;2022-09-09T04:10:41;4181.63;;;17.49;100.00
21877;BME280;11103;43.788;23.710;2022-09-09T04:13:07;1900.84;;;17.65;100.00
21877;BME280;11103;43.788;23.710;2022-09-09T04:15:33;-705.91;;;17.66;100.00
21877;BME280;11103;43.788;23.710;2022-09-09T04:18:00;-1356.84;;;17.80;100.00
21877;BME280;11103;43.788;23.710;2022-09-09T04:20:25;-2333.91;;;17.80;100.00
21877;BME280;11103;43.788;23.710;2022-09-09T04:22:51;-2333.84;;;17.85;100.00
21877;BME280;11103;43.788;23.710;2022-09-09T04:25:16;-2659.53;;;17.81;100.00
21877;BME280;11103;43.788;23.710;2022-09-09T04:27:53;-2659.44;;;17.90;100.00
21877;BME280;11103;43.788;23.710;2022-09-09T04:30:19;-2985.16;;;17.76;100.00
21877;BME280;11103;43.788;23.710;2022-09-09T04:32:46;-4612.75;;;17.87;100.00
21877;BME280;11103;43.788;23.710;2022-09-09T04:35:14;-3961.97;;;18.04;100.00
21877;BME280;11103;43.788;23.710;2022-09-09T04:37:39;-2985.03;;;17.97;100.00
21877;BME280;11103;43.788;23.710;2022-09-09T04:40:06;-1355.91;;;18.10;100.00
21877;BME280;11103;43.788;23.710;2022-09-09T04:42:35;-704.06;;;18.10;100.00
21877;BME280;11103;43.788;23.710;2022-09-09T04:45:01;599.41;;;18.00;100.00
21877;BME280;11103;43.788;23.710;2022-09-09T04:47:27;1577.56;;;17.99;100.00
21877;BME280;11103;43.788;23.710;2022-09-09T04:49:52;2231.44;;;18.16;100.00
21877;BME280;11103;43.788;23.710;2022-09-09T04:52:20;5170.47;;;18.24;100.00
21877;BME280;11103;43.788;23.710;2022-09-09T04:54:46;4518.31;;;18.32;100.00
21877;BME280;11103;43.788;23.710;2022-09-09T04:57:12;6806.03;;;18.37;100.00
21877;BME280;11103;43.788;23.710;2022-09-09T04:59:37;6806.03;;;18.37;100.00
21877;BME280;11103;43.788;23.710;2022-09-09T05:02:04;4847.75;;;18.54;100.00
21877;BME280;11103;43.788;23.710;2022-09-09T05:04:33;9753.19;;;18.57;100.00
21877;BME280;11103;43.788;23.710;2022-09-09T05:06:58;13025.78;;;18.51;100.00
21877;BME280;11103;43.788;23.710;2022-09-09T05:09:24;15980.66;;;18.69;100.00
21877;BME280;11103;43.788;23.710;2022-09-09T05:11:50;19924.63;;;18.86;100.00
21877;BME280;11103;43.788;23.710;2022-09-09T05:14:15;21231.69;;;18.69;100.00
21877;BME280;11103;43.788;23.710;2022-09-09T05:16:41;28813.84;;;19.06;100.00
21877;BME280;11103;43.788;23.710;2022-09-09T05:19:24;32436.22;;;19.01;100.00
21877;BME280;11103;43.788;23.710;2022-09-09T05:21:50;50289.22;;;19.01;100.00
21877;BME280;11103;43.788;23.710;2022-09-09T05:24:15;56295.53;;;19.37;100.00
21877;BME280;11103;43.788;23.710;2022-09-09T05:26:41;68955.72;;;19.46;100.00
21877;BME280;11103;43.788;23.710;2022-09-09T05:29:07;73608.91;;;19.30;100.00
21877;BME280;11103;43.788;23.710;2022-09-09T05:31:33;83352.03;;;19.63;100.00
21877;BME280;11103;43.788;23.710;2022-09-09T05:33:58;104907.94;;;19.62;100.00
21877;BME280;11103;43.788;23.710;2022-09-09T05:36:24;109649.03;;;19.75;100.00
21877;BME280;11103;43.788;23.710;2022-09-09T05:38:50;107405.72;;;19.97;100.00
21877;BME280;11103;43.788;23.710;2022-09-09T05:41:16;129624.91;;;20.07;100.00
21877;BME280;11103;43.788;23.710;2022-09-09T05:43:43;145584.59;;;20.05;100.00
21877;BME280;11103;43.788;23.710;2022-09-09T05:46:19;151522.38;;;20.30;100.00
21877;BME280;11103;43.788;23.710;2022-09-09T05:48:46;147795.47;;;20.42;100.00
21877;BME280;11103;43.788;23.710;2022-09-09T05:51:14;151568.81;;;20.48;100.00
21877;BME280;11103;43.788;23.710;2022-09-09T05:53:41;151568.81;;;20.48;100.00
21877;BME280;11103;43.788;23.710;2022-09-09T05:56:09;151567.53;;;20.47;100.00
21877;BME280;11103;43.788;23.710;2022-09-09T05:58:36;151642.38;;;20.76;100.00
21877;BME280;11103;43.788;23.710;2022-09-09T06:01:09;151643.66;;;20.77;100.00
21877;BME280;11103;43.788;23.710;2022-09-09T06:03:36;151664.31;;;20.85;100.00
21877;BME280;11103;43.788;23.710;2022-09-09T06:06:04;151654.00;;;20.81;100.00
21877;BME280;11103;43.788;23.710;2022-09-09T06:08:31;151660.47;;;20.84;100.00
21877;BME280;11103;43.788;23.710;2022-09-09T06:11:04;151704.38;;;21.01;100.00
21877;BME280;11103;43.788;23.710;2022-09-09T06:13:30;151620.47;;;20.68;100.00
21877;BME280;11103;43.788;23.710;2022-09-09T06:15:56;151692.72;;;20.96;100.00
21877;BME280;11103;43.788;23.710;2022-09-09T06:18:22;151748.28;;;21.18;100.00
21877;BME280;11103;43.788;23.710;2022-09-09T06:20:59;151776.69;;;21.29;100.00
21877;BME280;11103;43.788;23.710;2022-09-09T06:23:32;151829.66;;;21.50;100.00
21877;BME280;11103;43.788;23.710;2022-09-09T06:26:21;151818.00;;;21.45;100.00
21877;BME280;11103;43.788;23.710;2022-09-09T06:28:48;151883.91;;;21.71;100.00
21877;BME280;11103;43.788;23.710;2022-09-09T06:31:16;151896.81;;;21.76;100.00
21877;BME280;11103;43.788;23.710;2022-09-09T06:33:54;151878.69;;;21.69;100.00
21877;BME280;11103;43.788;23.710;2022-09-09T06:36:22;151930.44;;;21.89;100.00
21877;BME280;11103;43.788;23.710;2022-09-09T06:38:48;151957.56;;;22.00;100.00
21877;BME280;11103;43.788;23.710;2022-09-09T06:41:16;151974.38;;;22.06;100.00
21877;BME280;11103;43.788;23.710;2022-09-09T06:43:43;151922.63;;;21.86;100.00
21877;BME280;11103;43.788;23.710;2022-09-09T06:46:14;152007.97;;;22.19;100.00
21877;BME280;11103;43.788;23.710;2022-09-09T06:48:40;152007.97;;;22.19;100.00
21877;BME280;11103;43.788;23.710;2022-09-09T06:51:17;152081.63;;;22.48;100.00
21877;BME280;11103;43.788;23.710;2022-09-09T06:53:45;152095.84;;;22.53;100.00
21877;BME280;11103;43.788;23.710;2022-09-09T06:58:37;152207.06;;;22.97;100.00
21877;BME280;11103;43.788;23.710;2022-09-09T07:01:07;152221.28;;;23.02;100.00
21877;BME280;11103;43.788;23.710;2022-09-09T07:03:33;152163.13;;;22.80;100.00
21877;BME280;11103;43.788;23.710;2022-09-09T07:05:59;152266.56;;;23.20;100.00
21877;BME280;11103;43.788;23.710;2022-09-09T07:08:25;152271.72;;;23.22;100.00
21877;BME280;11103;43.788;23.710;2022-09-09T07:10:51;152251.03;;;23.14;100.00
21877;BME280;11103;43.788;23.710;2022-09-09T07:13:23;152336.44;;;23.47;100.00
21877;BME280;11103;43.788;23.710;2022-09-09T07:15:50;152305.34;;;23.35;100.00
21877;BME280;11103;43.788;23.710;2022-09-09T07:18:16;152357.13;;;23.55;100.00
21877;BME280;11103;43.788;23.710;2022-09-09T07:20:41;152317.06;;;23.40;100.00
21877;BME280;11103;43.788;23.710;2022-09-09T07:23:07;152337.75;;;23.48;100.00
21877;BME280;11103;43.788;23.710;2022-09-09T07:25:33;152383.00;;;23.65;100.00
21877;BME280;11103;43.788;23.710;2022-09-09T07:27:59;152415.31;;;23.78;100.00
21877;BME280;11103;43.788;23.710;2022-09-09T07:30:24;152390.78;;;23.68;100.00
21877;BME280;11103;43.788;23.710;2022-09-09T07:32:55;152333.84;;;23.46;100.00
21877;BME280;11103;43.788;23.710;2022-09-09T07:35:22;152415.31;;;23.78;100.00
21877;BME280;11103;43.788;23.710;2022-09-09T07:37:47;152339.00;;;23.48;100.00
21877;BME280;11103;43.788;23.710;2022-09-09T07:40:13;152389.47;;;23.68;100.00
21877;BME280;11103;43.788;23.710;2022-09-09T07:42:38;152419.22;;;23.80;100.00
21877;BME280;11103;43.788;23.710;2022-09-09T07:45:10;152414.06;;;23.78;100.00
21877;BME280;11103;43.788;23.710;2022-09-09T07:47:35;152393.38;;;23.69;100.00
21877;BME280;11103;43.788;23.710;2022-09-09T07:50:01;152491.72;;;24.08;100.00
21877;BME280;11103;43.788;23.710;2022-09-09T07:52:26;152463.22;;;23.97;100.00
21877;BME280;11103;43.788;23.710;2022-09-09T07:54:52;152496.91;;;24.10;100.00
21877;BME280;11103;43.788;23.710;2022-09-09T07:57:18;152521.50;;;24.19;100.00
21877;BME280;11103;43.788;23.710;2022-09-09T07:59:43;152559.03;;;24.34;100.00
21877;BME280;11103;43.788;23.710;2022-09-09T08:02:10;152530.56;;;24.23;100.00
21877;BME280;11103;43.788;23.710;2022-09-09T08:04:36;152542.19;;;24.27;100.00
21877;BME280;11103;43.788;23.710;2022-09-09T08:07:03;152573.28;;;24.40;100.00
21877;BME280;11103;43.788;23.710;2022-09-09T08:09:29;152608.22;;;24.53;100.00
21877;BME280;11103;43.788;23.710;2022-09-09T08:11:56;152608.22;;;24.53;100.00
21877;BME280;11103;43.788;23.710;2022-09-09T08:14:22;152663.88;;;24.75;100.00
21877;BME280;11103;43.788;23.710;2022-09-09T08:16:49;152694.97;;;24.87;100.00
21877;BME280;11103;43.788;23.710;2022-09-09T08:19:16;152694.97;;;24.87;100.00
21877;BME280;11103;43.788;23.710;2022-09-09T08:21:43;152750.66;;;25.09;100.00
21877;BME280;11103;43.788;23.710;2022-09-09T08:24:10;152751.97;;;25.09;100.00
21877;BME280;11103;43.788;23.710;2022-09-09T08:26:39;152797.31;;;25.27;100.00
21877;BME280;11103;43.788;23.710;2022-09-09T08:29:06;152820.59;;;25.36;100.00
21877;BME280;11103;43.788;23.710;2022-09-09T08:34:08;152815.44;;;25.34;100.00
21877;BME280;11103;43.788;23.710;2022-09-09T08:36:37;152863.41;;;25.53;100.00
21877;BME280;11103;43.788;23.710;2022-09-09T08:39:05;152836.16;;;25.42;100.00
21877;BME280;11103;43.788;23.710;2022-09-09T08:52:48;153018.94;;;26.13;95.22
21877;BME280;11103;43.788;23.710;2022-09-09T08:57:56;153011.13;;;26.10;100.00
21877;BME280;11103;43.788;23.710;2022-09-09T09:00:22;153018.94;;;26.13;100.00
21877;BME280;11103;43.788;23.710;2022-09-09T09:02:59;153066.91;;;26.32;100.00
21877;BME280;11103;43.788;23.710;2022-09-09T09:08:52;153105.81;;;26.47;100.00
21877;BME280;11103;43.788;23.710;2022-09-09T09:11:23;153149.84;;;26.64;100.00
21877;BME280;11103;43.788;23.710;2022-09-09T09:13:58;153149.84;;;26.64;97.35
21877;BME280;11103;43.788;23.710;2022-09-09T09:16:51;153148.53;;;26.63;90.91
21877;BME280;11103;43.788;23.710;2022-09-09T09:19:18;153188.81;;;26.79;93.08
21877;BME280;11103;43.788;23.710;2022-09-09T09:21:48;153145.97;;;26.63;94.59
21877;BME280;11103;43.788;23.710;2022-09-09T09:24:20;153241.97;;;27.00;100.00
21877;BME280;11103;43.788;23.710;2022-09-09T09:26:47;153238.09;;;26.98;100.00
21877;BME280;11103;43.788;23.710;2022-09-09T09:29:15;153262.72;;;27.08;100.00
21877;BME280;11103;43.788;23.710;2022-09-09T09:31:53;153187.50;;;26.79;100.00
21877;BME280;11103;43.788;23.710;2022-09-09T09:34:21;153240.66;;;26.99;96.06
21877;BME280;11103;43.788;23.710;2022-09-09T09:36:56;153204.34;;;26.85;100.00
21877;BME280;11103;43.788;23.710;2022-09-09T09:39:24;153231.63;;;26.96;100.00
21877;BME280;11103;43.788;23.710;2022-09-09T09:41:50;153222.53;;;26.92;95.97
21877;BME280;11103;43.788;23.710;2022-09-09T09:44:31;153221.22;;;26.92;93.80
21877;BME280;11103;43.788;23.710;2022-09-09T09:47:11;153173.19;;;26.73;89.47
21877;BME280;11103;43.788;23.710;2022-09-09T09:49:38;153142.06;;;26.61;100.00
21877;BME280;11103;43.788;23.710;2022-09-09T09:52:05;153170.59;;;26.72;100.00
21877;BME280;11103;43.788;23.710;2022-09-09T09:54:34;153140.81;;;26.60;100.00
21877;BME280;11103;43.788;23.710;2022-09-09T09:57:13;153174.50;;;26.74;96.27
21877;BME280;11103;43.788;23.710;2022-09-09T09:59:42;153100.59;;;26.45;100.00
21877;BME280;11103;43.788;23.710;2022-09-09T10:02:15;153173.19;;;26.73;97.29
21877;BME280;11103;43.788;23.710;2022-09-09T10:04:41;153133.03;;;26.57;92.92
21877;BME280;11103;43.788;23.710;2022-09-09T10:10:29;153120.06;;;26.52;88.56
21877;BME280;11103;43.788;23.710;2022-09-09T10:19:03;153065.59;;;26.31;93.28
21877;BME280;11103;43.788;23.710;2022-09-09T10:27:22;153070.81;;;26.33;89.37
21877;BME280;11103;43.788;23.710;2022-09-09T10:32:38;153079.84;;;26.37;100.00
21877;BME280;11103;43.788;23.710;2022-09-09T10:35:12;153044.84;;;26.23;95.01
21877;BME280;11103;43.788;23.710;2022-09-09T10:38:05;153037.06;;;26.20;100.00
21877;BME280;11103;43.788;23.710;2022-09-09T10:51:10;153232.88;;;26.96;100.00
21877;BME280;11103;43.788;23.710;2022-09-09T10:56:23;153229.00;;;26.95;100.00
21877;BME280;11103;43.788;23.710;2022-09-09T10:59:20;153217.34;;;26.90;100.00
21877;BME280;11103;43.788;23.710;2022-09-09T11:01:56;153201.78;;;26.84;100.00
21877;BME280;11103;43.788;23.710;2022-09-09T11:04:35;153149.84;;;26.64;98.59
21877;BME280;11103;43.788;23.710;2022-09-09T11:07:10;153142.06;;;26.61;100.00
21877;BME280;11103;43.788;23.710;2022-09-09T11:09:44;153098.03;;;26.44;100.00
21877;BME280;11103;43.788;23.710;2022-09-09T11:12:19;153110.97;;;26.49;100.00
21877;BME280;11103;43.788;23.710;2022-09-09T11:14:50;153072.06;;;26.34;100.00
21877;BME280;11103;43.788;23.710;2022-09-09T11:17:24;153044.84;;;26.23;99.41
21877;BME280;11103;43.788;23.710;2022-09-09T11:19:53;153126.53;;;26.55;100.00
21877;BME280;11103;43.788;23.710;2022-09-09T11:22:31;153161.56;;;26.69;100.00
21877;BME280;11103;43.788;23.710;2022-09-09T11:25:15;153266.63;;;27.09;100.00
21877;BME280;11103;43.788;23.710;2022-09-09T11:33:25;153513.19;;;28.05;100.00
21877;BME280;11103;43.788;23.710;2022-09-09T11:38:35;153641.69;;;28.55;92.87
21877;BME280;11103;43.788;23.710;2022-09-09T11:41:08;153575.47;;;28.29;89.28
21877;BME280;11103;43.788;23.710;2022-09-09T11:43:53;153624.81;;;28.49;94.40
21877;BME280;11103;43.788;23.710;2022-09-09T11:46:34;153636.53;;;28.53;98.72
21877;BME280;11103;43.788;23.710;2022-09-09T11:49:05;153585.88;;;28.33;96.38
21877;BME280;11103;43.788;23.710;2022-09-09T11:51:32;153593.69;;;28.37;86.77
21877;BME280;11103;43.788;23.710;2022-09-09T11:54:00;153623.53;;;28.48;96.59
21877;BME280;11103;43.788;23.710;2022-09-09T11:56:46;153591.06;;;28.35;93.73
21877;BME280;11103;43.788;23.710;2022-09-09T11:59:23;153596.25;;;28.38;93.88
21877;BME280;11103;43.788;23.710;2022-09-09T12:01:55;153593.69;;;28.37;100.00
21877;BME280;11103;43.788;23.710;2022-09-09T12:06:54;153604.03;;;28.41;100.00
21877;BME280;11103;43.788;23.710;2022-09-09T12:14:54;153522.28;;;28.09;100.00
21877;BME280;11103;43.788;23.710;2022-09-09T12:17:23;153510.63;;;28.04;93.67
21877;BME280;11103;43.788;23.710;2022-09-09T12:31:24;153552.16;;;28.20;82.66
21877;BME280;11103;43.788;23.710;2022-09-09T12:33:51;153524.91;;;28.10;91.40
21877;BME280;11103;43.788;23.710;2022-09-09T12:36:25;153531.38;;;28.12;86.37
21877;BME280;11103;43.788;23.710;2022-09-09T12:38:56;153544.34;;;28.17;92.34
21877;BME280;11103;43.788;23.710;2022-09-09T12:41:26;153572.91;;;28.28;87.67
21877;BME280;11103;43.788;23.710;2022-09-09T12:44:03;153541.75;;;28.16;97.42
21877;BME280;11103;43.788;23.710;2022-09-09T12:46:44;153558.63;;;28.23;88.03
21877;BME280;11103;43.788;23.710;2022-09-09T12:49:36;153522.28;;;28.09;82.87
21877;BME280;11103;43.788;23.710;2022-09-09T12:52:14;153444.38;;;27.78;82.66
21877;BME280;11103;43.788;23.710;2022-09-09T12:54:45;153422.31;;;27.70;91.02
21877;BME280;11103;43.788;23.710;2022-09-09T12:57:13;153406.78;;;27.64;100.00
21877;BME280;11103;43.788;23.710;2022-09-09T12:59:44;153302.91;;;27.24;98.28
21877;BME280;11103;43.788;23.710;2022-09-09T13:02:19;153324.97;;;27.32;96.10
21877;BME280;11103;43.788;23.710;2022-09-09T13:04:45;153256.22;;;27.05;95.69
21877;BME280;11103;43.788;23.710;2022-09-09T13:07:14;153196.59;;;26.82;94.44
21877;BME280;11103;43.788;23.710;2022-09-09T13:09:41;153136.91;;;26.59;98.81
21877;BME280;11103;43.788;23.710;2022-09-09T13:12:15;153147.28;;;26.63;100.00
21877;BME280;11103;43.788;23.710;2022-09-09T13:14:44;153126.53;;;26.55;100.00
21877;BME280;11103;43.788;23.710;2022-09-09T13:17:25;153122.63;;;26.53;100.00
21877;BME280;11103;43.788;23.710;2022-09-09T13:19:54;153103.19;;;26.46;100.00
21877;BME280;11103;43.788;23.710;2022-09-09T13:22:36;153157.63;;;26.67;100.00
21877;BME280;11103;43.788;23.710;2022-09-09T13:25:18;153164.13;;;26.70;100.00
21877;BME280;11103;43.788;23.710;2022-09-09T13:28:03;153271.81;;;27.11;100.00
21877;BME280;11103;43.788;23.710;2022-09-09T13:30:30;153360.03;;;27.46;100.00
21877;BME280;11103;43.788;23.710;2022-09-09T13:33:23;153489.81;;;27.96;100.00
21877;BME280;11103;43.788;23.710;2022-09-09T13:35:56;153610.53;;;28.43;98.82
21877;BME280;11103;43.788;23.710;2022-09-09T13:38:22;153720.97;;;28.86;90.23
21877;BME280;11103;43.788;23.710;2022-09-09T13:40:56;153750.78;;;28.98;86.91
21877;BME280;11103;43.788;23.710;2022-09-09T13:43:24;153741.75;;;28.94;78.80
21877;BME280;11103;43.788;23.710;2022-09-09T13:45:55;153691.09;;;28.74;80.04
21877;BME280;11103;43.788;23.710;2022-09-09T13:48:22;153676.81;;;28.69;92.67
21877;BME280;11103;43.788;23.710;2022-09-09T13:51:04;153679.41;;;28.70;95.68
21877;BME280;11103;43.788;23.710;2022-09-09T13:53:31;153682.00;;;28.71;95.78
21877;BME280;11103;43.788;23.710;2022-09-09T13:55:57;153827.47;;;29.27;100.00
21877;BME280;11103;43.788;23.710;2022-09-09T13:58:24;153892.44;;;29.52;98.57
21877;BME280;11103;43.788;23.710;2022-09-09T14:00:51;153991.22;;;29.91;96.62
21877;BME280;11103;43.788;23.710;2022-09-09T14:03:18;154207.03;;;30.75;100.00
21877;BME280;11103;43.788;23.710;2022-09-09T14:05:44;154266.94;;;30.98;80.91
21877;BME280;11103;43.788;23.710;2022-09-09T14:08:16;154410.00;;;31.53;79.20
21877;BME280;11103;43.788;23.710;2022-09-09T14:10:45;154480.25;;;31.80;80.40
21877;BME280;11103;43.788;23.710;2022-09-09T14:13:10;154516.69;;;31.95;74.29
21877;BME280;11103;43.788;23.710;2022-09-09T14:15:37;154534.94;;;32.02;75.04
21877;BME280;11103;43.788;23.710;2022-09-09T14:18:03;154529.72;;;32.00;75.22
21877;BME280;11103;43.788;23.710;2022-09-09T14:20:29;154602.66;;;32.28;62.28
21877;BME280;11103;43.788;23.710;2022-09-09T14:22:55;154603.97;;;32.28;77.40
21877;BME280;11103;43.788;23.710;2022-09-09T14:25:22;154561.00;;;32.12;60.53
21877;BME280;11103;43.788;23.710;2022-09-09T14:27:51;154667.81;;;32.53;65.86
21877;BME280;11103;43.788;23.710;2022-09-09T14:30:16;154693.81;;;32.63;64.13
21877;BME280;11103;43.788;23.710;2022-09-09T14:32:42;154712.03;;;32.70;68.61
21877;BME280;11103;43.788;23.710;2022-09-09T14:35:08;154731.53;;;32.78;64.67
21877;BME280;11103;43.788;23.710;2022-09-09T14:37:33;154706.81;;;32.68;77.69
21877;BME280;11103;43.788;23.710;2022-09-09T14:39:59;154691.19;;;32.62;68.70
21877;BME280;11103;43.788;23.710;2022-09-09T14:42:24;154659.94;;;32.50;65.86
21877;BME280;11103;43.788;23.710;2022-09-09T14:44:49;154769.31;;;32.92;67.57
21877;BME280;11103;43.788;23.710;2022-09-09T14:47:15;154821.47;;;33.13;61.61
21877;BME280;11103;43.788;23.710;2022-09-09T14:49:40;154657.31;;;32.49;51.90
21877;BME280;11103;43.788;23.710;2022-09-09T14:52:06;154581.84;;;32.20;52.26
21877;BME280;11103;43.788;23.710;2022-09-09T14:54:33;154592.22;;;32.24;52.23
21877;BME280;11103;43.788;23.710;2022-09-09T14:56:58;154628.69;;;32.38;60.90
21877;BME280;11103;43.788;23.710;2022-09-09T14:59:24;154680.81;;;32.58;60.15
21877;BME280;11103;43.788;23.710;2022-09-09T15:01:52;154734.16;;;32.79;62.74
21877;BME280;11103;43.788;23.710;2022-09-09T15:04:18;154782.31;;;32.97;63.92
21877;BME280;11103;43.788;23.710;2022-09-09T15:06:46;154709.44;;;32.69;61.10